sensor_id;sensor_type;location;lat;lon;timestamp;P1;durP1;ratioP1;P2;durP2;ratioP2
59273;SDS011;45044;41.572;24.730;2022-07-23T00:00:27;7.57;;;5.70;;
59273;SDS011;45044;41.572;24.730;2022-07-23T00:02:53;8.13;;;5.43;;
59273;SDS011;45044;41.572;24.730;2022-07-23T00:05:20;8.85;;;6.32;;
59273;SDS011;45044;41.572;24.730;2022-07-23T00:07:47;8.93;;;5.97;;
59273;SDS011;45044;41.572;24.730;2022-07-23T00:10:14;8.00;;;6.22;;
59273;SDS011;45044;41.572;24.730;2022-07-23T00:12:41;7.35;;;6.07;;
59273;SDS011;45044;41.572;24.730;2022-07-23T00:15:17;10.25;;;6.43;;
59273;SDS011;45044;41.572;24.730;2022-07-23T00:17:43;9.10;;;6.93;;
59273;SDS011;45044;41.572;24.730;2022-07-23T00:20:10;8.40;;;6.30;;
59273;SDS011;45044;41.572;24.730;2022-07-23T00:22:45;10.85;;;6.55;;
59273;SDS011;45044;41.572;24.730;2022-07-23T00:25:12;8.02;;;6.30;;
59273;SDS011;45044;41.572;24.730;2022-07-23T00:27:57;7.80;;;5.68;;
59273;SDS011;45044;41.572;24.730;2022-07-23T00:30:25;8.25;;;6.05;;
59273;SDS011;45044;41.572;24.730;2022-07-23T00:32:53;8.77;;;6.25;;
59273;SDS011;45044;41.572;24.730;2022-07-23T00:35:27;8.32;;;5.45;;
59273;SDS011;45044;41.572;24.730;2022-07-23T00:37:55;7.32;;;5.20;;
59273;SDS011;45044;41.572;24.730;2022-07-23T00:40:23;8.25;;;5.55;;
59273;SDS011;45044;41.572;24.730;2022-07-23T00:42:50;8.07;;;4.85;;
59273;SDS011;45044;41.572;24.730;2022-07-23T00:45:18;8.27;;;5.15;;
59273;SDS011;45044;41.572;24.730;2022-07-23T00:47:46;7.85;;;5.57;;
59273;SDS011;45044;41.572;24.730;2022-07-23T00:50:13;9.10;;;5.75;;
59273;SDS011;45044;41.572;24.730;2022-07-23T00:52:40;8.65;;;5.70;;
59273;SDS011;45044;41.572;24.730;2022-07-23T00:55:07;8.65;;;6.30;;
59273;SDS011;45044;41.572;24.730;2022-07-23T00:57:36;10.00;;;6.05;;
59273;SDS011;45044;41.572;24.730;2022-07-23T01:00:04;9.43;;;6.22;;
59273;SDS011;45044;41.572;24.730;2022-07-23T01:02:33;9.45;;;6.57;;
59273;SDS011;45044;41.572;24.730;2022-07-23T01:05:00;8.95;;;6.35;;
59273;SDS011;45044;41.572;24.730;2022-07-23T01:07:26;8.02;;;6.05;;
59273;SDS011;45044;41.572;24.730;2022-07-23T01:09:54;10.50;;;6.05;;
59273;SDS011;45044;41.572;24.730;2022-07-23T01:12:21;9.43;;;6.30;;
59273;SDS011;45044;41.572;24.730;2022-07-23T01:14:55;10.00;;;6.07;;
59273;SDS011;45044;41.572;24.730;2022-07-23T01:17:26;9.10;;;6.20;;
59273;SDS011;45044;41.572;24.730;2022-07-23T01:19:54;8.60;;;6.05;;
59273;SDS011;45044;41.572;24.730;2022-07-23T01:22:21;9.35;;;5.85;;
59273;SDS011;45044;41.572;24.730;2022-07-23T01:24:48;8.00;;;5.07;;
59273;SDS011;45044;41.572;24.730;2022-07-23T01:27:15;7.45;;;5.07;;
59273;SDS011;45044;41.572;24.730;2022-07-23T01:29:44;7.40;;;5.10;;
59273;SDS011;45044;41.572;24.730;2022-07-23T01:32:11;8.27;;;5.70;;
59273;SDS011;45044;41.572;24.730;2022-07-23T01:34:37;9.68;;;6.07;;
59273;SDS011;45044;41.572;24.730;2022-07-23T01:37:04;8.23;;;5.95;;
59273;SDS011;45044;41.572;24.730;2022-07-23T01:39:31;10.90;;;6.20;;
59273;SDS011;45044;41.572;24.730;2022-07-23T01:41:58;8.90;;;6.00;;
59273;SDS011;45044;41.572;24.730;2022-07-23T01:44:25;8.77;;;5.25;;
59273;SDS011;45044;41.572;24.730;2022-07-23T01:46:52;8.70;;;5.55;;
59273;SDS011;45044;41.572;24.730;2022-07-23T01:49:19;8.40;;;5.70;;
59273;SDS011;45044;41.572;24.730;2022-07-23T01:51:46;9.38;;;5.25;;
59273;SDS011;45044;41.572;24.730;2022-07-23T01:54:31;8.07;;;5.07;;
59273;SDS011;45044;41.572;24.730;2022-07-23T01:56:59;7.82;;;5.35;;
59273;SDS011;45044;41.572;24.730;2022-07-23T01:59:27;7.55;;;5.38;;
59273;SDS011;45044;41.572;24.730;2022-07-23T02:01:54;9.90;;;5.60;;
59273;SDS011;45044;41.572;24.730;2022-07-23T02:04:22;8.20;;;5.78;;
59273;SDS011;45044;41.572;24.730;2022-07-23T02:06:51;8.10;;;5.30;;
59273;SDS011;45044;41.572;24.730;2022-07-23T02:09:18;7.50;;;5.38;;
59273;SDS011;45044;41.572;24.730;2022-07-23T02:11:45;13.63;;;5.93;;
59273;SDS011;45044;41.572;24.730;2022-07-23T02:14:13;9.85;;;5.38;;
59273;SDS011;45044;41.572;24.730;2022-07-23T02:16:39;8.52;;;5.75;;
59273;SDS011;45044;41.572;24.730;2022-07-23T02:19:06;7.25;;;5.45;;
59273;SDS011;45044;41.572;24.730;2022-07-23T02:21:33;7.95;;;5.35;;
59273;SDS011;45044;41.572;24.730;2022-07-23T02:24:00;8.75;;;5.43;;
59273;SDS011;45044;41.572;24.730;2022-07-23T02:26:26;9.43;;;5.85;;
59273;SDS011;45044;41.572;24.730;2022-07-23T02:28:53;8.38;;;5.38;;
59273;SDS011;45044;41.572;24.730;2022-07-23T02:31:20;7.55;;;5.13;;
59273;SDS011;45044;41.572;24.730;2022-07-23T02:33:47;8.68;;;5.32;;
59273;SDS011;45044;41.572;24.730;2022-07-23T02:36:13;7.68;;;4.80;;
59273;SDS011;45044;41.572;24.730;2022-07-23T02:38:41;9.05;;;5.68;;
59273;SDS011;45044;41.572;24.730;2022-07-23T02:41:07;8.15;;;5.25;;
59273;SDS011;45044;41.572;24.730;2022-07-23T02:43:35;8.77;;;5.85;;
59273;SDS011;45044;41.572;24.730;2022-07-23T02:46:02;8.43;;;5.85;;
59273;SDS011;45044;41.572;24.730;2022-07-23T02:48:28;8.20;;;5.55;;
59273;SDS011;45044;41.572;24.730;2022-07-23T02:50:55;8.40;;;6.25;;
59273;SDS011;45044;41.572;24.730;2022-07-23T02:53:23;8.20;;;5.97;;
59273;SDS011;45044;41.572;24.730;2022-07-23T02:55:49;10.02;;;6.20;;
59273;SDS011;45044;41.572;24.730;2022-07-23T02:58:16;8.68;;;5.60;;
59273;SDS011;45044;41.572;24.730;2022-07-23T03:00:43;7.60;;;5.07;;
59273;SDS011;45044;41.572;24.730;2022-07-23T03:03:10;7.32;;;4.93;;
59273;SDS011;45044;41.572;24.730;2022-07-23T03:05:37;9.43;;;5.00;;
59273;SDS011;45044;41.572;24.730;2022-07-23T03:08:03;7.47;;;5.18;;
59273;SDS011;45044;41.572;24.730;2022-07-23T03:10:30;9.65;;;5.15;;
59273;SDS011;45044;41.572;24.730;2022-07-23T03:12:57;8.43;;;5.97;;
59273;SDS011;45044;41.572;24.730;2022-07-23T03:15:23;10.35;;;6.47;;
59273;SDS011;45044;41.572;24.730;2022-07-23T03:17:50;8.23;;;5.55;;
59273;SDS011;45044;41.572;24.730;2022-07-23T03:20:17;10.63;;;5.95;;
59273;SDS011;45044;41.572;24.730;2022-07-23T03:22:43;8.77;;;5.45;;
59273;SDS011;45044;41.572;24.730;2022-07-23T03:25:10;7.60;;;6.03;;
59273;SDS011;45044;41.572;24.730;2022-07-23T03:27:37;9.27;;;5.72;;
59273;SDS011;45044;41.572;24.730;2022-07-23T03:30:04;9.48;;;5.65;;
59273;SDS011;45044;41.572;24.730;2022-07-23T03:32:31;9.25;;;5.80;;
59273;SDS011;45044;41.572;24.730;2022-07-23T03:34:58;9.63;;;5.75;;
59273;SDS011;45044;41.572;24.730;2022-07-23T03:37:25;7.88;;;5.45;;
59273;SDS011;45044;41.572;24.730;2022-07-23T03:39:52;9.48;;;5.82;;
59273;SDS011;45044;41.572;24.730;2022-07-23T03:42:19;8.70;;;5.80;;
59273;SDS011;45044;41.572;24.730;2022-07-23T03:44:47;9.40;;;6.82;;
59273;SDS011;45044;41.572;24.730;2022-07-23T03:47:14;8.63;;;6.18;;
59273;SDS011;45044;41.572;24.730;2022-07-23T03:49:41;7.28;;;5.25;;
59273;SDS011;45044;41.572;24.730;2022-07-23T03:52:09;9.13;;;5.72;;
59273;SDS011;45044;41.572;24.730;2022-07-23T03:54:35;8.32;;;5.35;;
59273;SDS011;45044;41.572;24.730;2022-07-23T03:57:02;8.98;;;5.85;;
59273;SDS011;45044;41.572;24.730;2022-07-23T03:59:31;8.20;;;5.70;;
59273;SDS011;45044;41.572;24.730;2022-07-23T04:01:58;8.48;;;5.32;;
59273;SDS011;45044;41.572;24.730;2022-07-23T04:04:24;9.40;;;5.88;;
59273;SDS011;45044;41.572;24.730;2022-07-23T04:06:52;8.40;;;5.97;;
59273;SDS011;45044;41.572;24.730;2022-07-23T04:09:19;8.18;;;5.85;;
59273;SDS011;45044;41.572;24.730;2022-07-23T04:11:46;9.30;;;6.43;;
59273;SDS011;45044;41.572;24.730;2022-07-23T04:14:12;11.07;;;6.20;;
59273;SDS011;45044;41.572;24.730;2022-07-23T04:16:39;8.32;;;6.05;;
59273;SDS011;45044;41.572;24.730;2022-07-23T04:19:06;11.30;;;6.93;;
59273;SDS011;45044;41.572;24.730;2022-07-23T04:21:32;10.18;;;6.35;;
59273;SDS011;45044;41.572;24.730;2022-07-23T04:23:59;9.45;;;6.35;;
59273;SDS011;45044;41.572;24.730;2022-07-23T04:26:26;17.00;;;6.50;;
59273;SDS011;45044;41.572;24.730;2022-07-23T04:28:52;11.30;;;6.60;;
59273;SDS011;45044;41.572;24.730;2022-07-23T04:31:19;10.02;;;6.82;;
59273;SDS011;45044;41.572;24.730;2022-07-23T04:33:46;10.98;;;8.38;;
59273;SDS011;45044;41.572;24.730;2022-07-23T04:36:12;18.60;;;14.82;;
59273;SDS011;45044;41.572;24.730;2022-07-23T04:38:39;15.70;;;13.18;;
59273;SDS011;45044;41.572;24.730;2022-07-23T04:41:06;11.85;;;8.98;;
59273;SDS011;45044;41.572;24.730;2022-07-23T04:43:33;12.27;;;8.57;;
59273;SDS011;45044;41.572;24.730;2022-07-23T04:45:59;11.55;;;7.28;;
59273;SDS011;45044;41.572;24.730;2022-07-23T04:48:27;12.95;;;7.82;;
59273;SDS011;45044;41.572;24.730;2022-07-23T04:50:54;10.05;;;7.35;;
59273;SDS011;45044;41.572;24.730;2022-07-23T04:53:21;12.98;;;8.18;;
59273;SDS011;45044;41.572;24.730;2022-07-23T04:55:47;10.93;;;8.20;;
59273;SDS011;45044;41.572;24.730;2022-07-23T04:58:14;10.02;;;7.65;;
59273;SDS011;45044;41.572;24.730;2022-07-23T05:00:41;12.07;;;8.85;;
59273;SDS011;45044;41.572;24.730;2022-07-23T05:03:08;10.20;;;7.50;;
59273;SDS011;45044;41.572;24.730;2022-07-23T05:05:36;10.50;;;7.10;;
59273;SDS011;45044;41.572;24.730;2022-07-23T05:08:04;9.75;;;8.18;;
59273;SDS011;45044;41.572;24.730;2022-07-23T05:10:30;9.38;;;7.82;;
59273;SDS011;45044;41.572;24.730;2022-07-23T05:12:57;8.70;;;7.75;;
59273;SDS011;45044;41.572;24.730;2022-07-23T05:15:24;10.20;;;8.05;;
59273;SDS011;45044;41.572;24.730;2022-07-23T05:17:51;11.05;;;8.10;;
59273;SDS011;45044;41.572;24.730;2022-07-23T05:20:18;11.70;;;7.90;;
59273;SDS011;45044;41.572;24.730;2022-07-23T05:22:44;13.55;;;8.45;;
59273;SDS011;45044;41.572;24.730;2022-07-23T05:25:11;9.90;;;8.25;;
59273;SDS011;45044;41.572;24.730;2022-07-23T05:27:39;10.88;;;8.50;;
59273;SDS011;45044;41.572;24.730;2022-07-23T05:30:06;9.70;;;8.13;;
59273;SDS011;45044;41.572;24.730;2022-07-23T05:32:33;9.57;;;7.80;;
59273;SDS011;45044;41.572;24.730;2022-07-23T05:35:00;10.25;;;7.70;;
59273;SDS011;45044;41.572;24.730;2022-07-23T05:37:26;11.77;;;8.63;;
59273;SDS011;45044;41.572;24.730;2022-07-23T05:39:53;9.10;;;7.45;;
59273;SDS011;45044;41.572;24.730;2022-07-23T05:42:21;8.80;;;6.43;;
59273;SDS011;45044;41.572;24.730;2022-07-23T05:44:47;12.57;;;7.40;;
59273;SDS011;45044;41.572;24.730;2022-07-23T05:47:14;10.60;;;7.57;;
59273;SDS011;45044;41.572;24.730;2022-07-23T05:49:41;9.00;;;6.18;;
59273;SDS011;45044;41.572;24.730;2022-07-23T05:52:07;10.63;;;6.90;;
59273;SDS011;45044;41.572;24.730;2022-07-23T05:54:34;7.57;;;6.13;;
59273;SDS011;45044;41.572;24.730;2022-07-23T05:57:02;8.77;;;6.22;;
59273;SDS011;45044;41.572;24.730;2022-07-23T05:59:29;8.27;;;5.85;;
59273;SDS011;45044;41.572;24.730;2022-07-23T06:01:56;10.85;;;6.32;;
59273;SDS011;45044;41.572;24.730;2022-07-23T06:04:23;8.95;;;6.00;;
59273;SDS011;45044;41.572;24.730;2022-07-23T06:06:50;10.07;;;6.47;;
59273;SDS011;45044;41.572;24.730;2022-07-23T06:09:17;8.68;;;6.30;;
59273;SDS011;45044;41.572;24.730;2022-07-23T06:11:48;10.65;;;6.30;;
59273;SDS011;45044;41.572;24.730;2022-07-23T06:14:15;8.05;;;6.15;;
59273;SDS011;45044;41.572;24.730;2022-07-23T06:16:41;9.20;;;6.57;;
59273;SDS011;45044;41.572;24.730;2022-07-23T06:19:09;8.65;;;6.45;;
59273;SDS011;45044;41.572;24.730;2022-07-23T06:21:35;9.30;;;6.47;;
59273;SDS011;45044;41.572;24.730;2022-07-23T06:24:13;10.68;;;6.22;;
59273;SDS011;45044;41.572;24.730;2022-07-23T06:26:39;9.23;;;6.55;;
59273;SDS011;45044;41.572;24.730;2022-07-23T06:29:07;9.60;;;5.43;;
59273;SDS011;45044;41.572;24.730;2022-07-23T06:31:33;9.98;;;6.22;;
59273;SDS011;45044;41.572;24.730;2022-07-23T06:34:00;7.57;;;5.55;;
59273;SDS011;45044;41.572;24.730;2022-07-23T06:36:27;6.93;;;5.43;;
59273;SDS011;45044;41.572;24.730;2022-07-23T06:38:54;9.40;;;6.03;;
59273;SDS011;45044;41.572;24.730;2022-07-23T06:41:21;9.10;;;6.25;;
59273;SDS011;45044;41.572;24.730;2022-07-23T06:43:49;10.18;;;6.40;;
59273;SDS011;45044;41.572;24.730;2022-07-23T06:46:16;7.68;;;6.13;;
59273;SDS011;45044;41.572;24.730;2022-07-23T06:48:43;10.38;;;6.00;;
59273;SDS011;45044;41.572;24.730;2022-07-23T06:51:10;8.68;;;6.22;;
59273;SDS011;45044;41.572;24.730;2022-07-23T06:53:37;11.45;;;6.57;;
59273;SDS011;45044;41.572;24.730;2022-07-23T06:56:07;7.72;;;5.95;;
59273;SDS011;45044;41.572;24.730;2022-07-23T06:58:33;8.85;;;5.70;;
59273;SDS011;45044;41.572;24.730;2022-07-23T07:01:01;8.93;;;5.75;;
59273;SDS011;45044;41.572;24.730;2022-07-23T07:03:28;8.07;;;6.18;;
59273;SDS011;45044;41.572;24.730;2022-07-23T07:05:55;7.13;;;5.63;;
59273;SDS011;45044;41.572;24.730;2022-07-23T07:08:23;8.25;;;5.78;;
59273;SDS011;45044;41.572;24.730;2022-07-23T07:10:50;7.90;;;5.75;;
59273;SDS011;45044;41.572;24.730;2022-07-23T07:13:17;8.43;;;5.95;;
59273;SDS011;45044;41.572;24.730;2022-07-23T07:15:44;9.32;;;5.75;;
59273;SDS011;45044;41.572;24.730;2022-07-23T07:18:11;7.47;;;5.88;;
59273;SDS011;45044;41.572;24.730;2022-07-23T07:20:38;8.23;;;5.68;;
59273;SDS011;45044;41.572;24.730;2022-07-23T07:23:04;6.88;;;4.90;;
59273;SDS011;45044;41.572;24.730;2022-07-23T07:25:31;8.80;;;5.22;;
59273;SDS011;45044;41.572;24.730;2022-07-23T07:27:58;7.40;;;5.25;;
59273;SDS011;45044;41.572;24.730;2022-07-23T07:30:24;9.85;;;5.80;;
59273;SDS011;45044;41.572;24.730;2022-07-23T07:32:58;7.90;;;5.13;;
59273;SDS011;45044;41.572;24.730;2022-07-23T07:35:25;9.30;;;5.32;;
59273;SDS011;45044;41.572;24.730;2022-07-23T07:37:52;6.63;;;5.35;;
59273;SDS011;45044;41.572;24.730;2022-07-23T07:40:19;7.35;;;5.47;;
59273;SDS011;45044;41.572;24.730;2022-07-23T07:42:47;7.95;;;5.50;;
59273;SDS011;45044;41.572;24.730;2022-07-23T07:45:15;9.45;;;6.05;;
59273;SDS011;45044;41.572;24.730;2022-07-23T07:47:42;8.98;;;6.07;;
59273;SDS011;45044;41.572;24.730;2022-07-23T07:50:09;8.50;;;5.82;;
59273;SDS011;45044;41.572;24.730;2022-07-23T07:52:38;9.98;;;6.10;;
59273;SDS011;45044;41.572;24.730;2022-07-23T07:55:05;10.48;;;6.18;;
59273;SDS011;45044;41.572;24.730;2022-07-23T07:57:34;7.97;;;5.63;;
59273;SDS011;45044;41.572;24.730;2022-07-23T08:00:02;8.30;;;5.90;;
59273;SDS011;45044;41.572;24.730;2022-07-23T08:02:40;8.70;;;5.00;;
59273;SDS011;45044;41.572;24.730;2022-07-23T08:05:12;7.97;;;4.57;;
59273;SDS011;45044;41.572;24.730;2022-07-23T08:07:40;8.77;;;4.97;;
59273;SDS011;45044;41.572;24.730;2022-07-23T08:10:07;8.38;;;5.07;;
59273;SDS011;45044;41.572;24.730;2022-07-23T08:12:46;7.05;;;4.97;;
59273;SDS011;45044;41.572;24.730;2022-07-23T08:15:15;7.88;;;4.72;;
59273;SDS011;45044;41.572;24.730;2022-07-23T08:17:43;7.25;;;4.90;;
59273;SDS011;45044;41.572;24.730;2022-07-23T08:20:12;7.10;;;4.57;;
59273;SDS011;45044;41.572;24.730;2022-07-23T08:25:23;6.43;;;4.22;;
59273;SDS011;45044;41.572;24.730;2022-07-23T08:27:54;8.45;;;4.85;;
59273;SDS011;45044;41.572;24.730;2022-07-23T08:30:22;7.53;;;5.28;;
59273;SDS011;45044;41.572;24.730;2022-07-23T08:33:00;8.05;;;4.60;;
59273;SDS011;45044;41.572;24.730;2022-07-23T08:35:31;7.45;;;5.00;;
59273;SDS011;45044;41.572;24.730;2022-07-23T08:38:03;7.68;;;4.20;;
59273;SDS011;45044;41.572;24.730;2022-07-23T08:40:33;8.82;;;4.30;;
59273;SDS011;45044;41.572;24.730;2022-07-23T08:43:09;7.40;;;4.85;;
59273;SDS011;45044;41.572;24.730;2022-07-23T08:45:39;7.15;;;5.03;;
59273;SDS011;45044;41.572;24.730;2022-07-23T08:48:12;9.27;;;4.63;;
59273;SDS011;45044;41.572;24.730;2022-07-23T08:50:45;7.78;;;4.55;;
59273;SDS011;45044;41.572;24.730;2022-07-23T08:53:14;6.68;;;4.80;;
59273;SDS011;45044;41.572;24.730;2022-07-23T08:55:59;9.98;;;4.90;;
59273;SDS011;45044;41.572;24.730;2022-07-23T08:58:30;8.75;;;4.93;;
59273;SDS011;45044;41.572;24.730;2022-07-23T09:00:57;9.38;;;4.97;;
59273;SDS011;45044;41.572;24.730;2022-07-23T09:03:26;9.15;;;4.35;;
59273;SDS011;45044;41.572;24.730;2022-07-23T09:05:53;9.75;;;4.97;;
59273;SDS011;45044;41.572;24.730;2022-07-23T09:08:25;7.70;;;4.60;;
59273;SDS011;45044;41.572;24.730;2022-07-23T09:11:01;7.88;;;4.57;;
59273;SDS011;45044;41.572;24.730;2022-07-23T09:15:59;8.80;;;4.85;;
59273;SDS011;45044;41.572;24.730;2022-07-23T09:18:51;8.10;;;4.30;;
59273;SDS011;45044;41.572;24.730;2022-07-23T09:21:20;7.53;;;4.43;;
59273;SDS011;45044;41.572;24.730;2022-07-23T09:24:04;9.15;;;4.80;;
59273;SDS011;45044;41.572;24.730;2022-07-23T09:26:37;7.45;;;4.53;;
59273;SDS011;45044;41.572;24.730;2022-07-23T09:29:09;8.02;;;4.57;;
59273;SDS011;45044;41.572;24.730;2022-07-23T09:31:43;7.47;;;4.53;;
59273;SDS011;45044;41.572;24.730;2022-07-23T09:34:14;7.85;;;5.13;;
59273;SDS011;45044;41.572;24.730;2022-07-23T09:36:45;9.32;;;4.75;;
59273;SDS011;45044;41.572;24.730;2022-07-23T09:39:13;7.15;;;4.68;;
59273;SDS011;45044;41.572;24.730;2022-07-23T09:41:43;9.45;;;5.18;;
59273;SDS011;45044;41.572;24.730;2022-07-23T09:44:20;8.70;;;4.70;;
59273;SDS011;45044;41.572;24.730;2022-07-23T09:46:57;7.57;;;4.85;;
59273;SDS011;45044;41.572;24.730;2022-07-23T09:49:27;10.52;;;4.65;;
59273;SDS011;45044;41.572;24.730;2022-07-23T09:51:59;7.38;;;4.60;;
59273;SDS011;45044;41.572;24.730;2022-07-23T09:56:58;8.30;;;4.53;;
59273;SDS011;45044;41.572;24.730;2022-07-23T09:59:27;9.85;;;4.75;;
59273;SDS011;45044;41.572;24.730;2022-07-23T10:01:57;7.97;;;4.70;;
59273;SDS011;45044;41.572;24.730;2022-07-23T10:04:27;8.52;;;4.68;;
59273;SDS011;45044;41.572;24.730;2022-07-23T10:06:57;9.13;;;4.50;;
59273;SDS011;45044;41.572;24.730;2022-07-23T10:09:33;8.55;;;4.53;;
59273;SDS011;45044;41.572;24.730;2022-07-23T10:12:03;8.13;;;4.43;;
59273;SDS011;45044;41.572;24.730;2022-07-23T10:14:34;7.60;;;4.35;;
59273;SDS011;45044;41.572;24.730;2022-07-23T10:17:02;8.02;;;4.75;;
59273;SDS011;45044;41.572;24.730;2022-07-23T10:19:30;7.50;;;4.75;;
59273;SDS011;45044;41.572;24.730;2022-07-23T10:22:00;8.25;;;5.20;;
59273;SDS011;45044;41.572;24.730;2022-07-23T10:27:23;7.03;;;4.38;;
59273;SDS011;45044;41.572;24.730;2022-07-23T10:30:17;9.30;;;4.95;;
59273;SDS011;45044;41.572;24.730;2022-07-23T10:37:43;9.27;;;5.78;;
59273;SDS011;45044;41.572;24.730;2022-07-23T10:40:17;8.88;;;4.93;;
59273;SDS011;45044;41.572;24.730;2022-07-23T10:42:48;7.97;;;4.95;;
59273;SDS011;45044;41.572;24.730;2022-07-23T10:45:24;11.88;;;5.38;;
59273;SDS011;45044;41.572;24.730;2022-07-23T10:47:52;8.05;;;4.80;;
59273;SDS011;45044;41.572;24.730;2022-07-23T10:50:26;7.05;;;4.57;;
59273;SDS011;45044;41.572;24.730;2022-07-23T10:55:40;9.45;;;5.05;;
59273;SDS011;45044;41.572;24.730;2022-07-23T10:58:17;7.47;;;4.15;;
59273;SDS011;45044;41.572;24.730;2022-07-23T11:00:47;6.35;;;4.40;;
59273;SDS011;45044;41.572;24.730;2022-07-23T11:03:48;6.28;;;4.50;;
59273;SDS011;45044;41.572;24.730;2022-07-23T11:06:21;9.50;;;5.13;;
59273;SDS011;45044;41.572;24.730;2022-07-23T11:17:28;10.75;;;5.03;;
59273;SDS011;45044;41.572;24.730;2022-07-23T11:22:34;8.00;;;4.70;;
59273;SDS011;45044;41.572;24.730;2022-07-23T11:25:06;9.57;;;4.95;;
59273;SDS011;45044;41.572;24.730;2022-07-23T11:27:40;8.23;;;5.78;;
59273;SDS011;45044;41.572;24.730;2022-07-23T11:30:09;7.30;;;4.75;;
59273;SDS011;45044;41.572;24.730;2022-07-23T11:32:38;7.57;;;4.30;;
59273;SDS011;45044;41.572;24.730;2022-07-23T11:35:23;8.77;;;4.97;;
59273;SDS011;45044;41.572;24.730;2022-07-23T11:37:52;9.90;;;5.38;;
59273;SDS011;45044;41.572;24.730;2022-07-23T11:40:28;6.88;;;4.72;;
59273;SDS011;45044;41.572;24.730;2022-07-23T11:43:03;8.23;;;5.38;;
59273;SDS011;45044;41.572;24.730;2022-07-23T11:45:45;10.95;;;5.10;;
59273;SDS011;45044;41.572;24.730;2022-07-23T11:48:18;11.20;;;5.35;;
59273;SDS011;45044;41.572;24.730;2022-07-23T11:50:47;6.55;;;4.60;;
59273;SDS011;45044;41.572;24.730;2022-07-23T11:53:25;7.93;;;4.15;;
59273;SDS011;45044;41.572;24.730;2022-07-23T11:56:07;8.15;;;4.97;;
59273;SDS011;45044;41.572;24.730;2022-07-23T11:58:37;7.88;;;4.90;;
59273;SDS011;45044;41.572;24.730;2022-07-23T12:01:05;9.98;;;5.25;;
59273;SDS011;45044;41.572;24.730;2022-07-23T12:03:48;8.40;;;5.15;;
59273;SDS011;45044;41.572;24.730;2022-07-23T12:06:16;8.57;;;4.88;;
59273;SDS011;45044;41.572;24.730;2022-07-23T12:08:43;10.77;;;5.45;;
59273;SDS011;45044;41.572;24.730;2022-07-23T12:11:11;9.65;;;5.45;;
59273;SDS011;45044;41.572;24.730;2022-07-23T12:13:40;8.32;;;4.13;;
59273;SDS011;45044;41.572;24.730;2022-07-23T12:16:07;7.10;;;4.78;;
59273;SDS011;45044;41.572;24.730;2022-07-23T12:18:34;9.45;;;4.88;;
59273;SDS011;45044;41.572;24.730;2022-07-23T12:21:03;12.82;;;6.75;;
59273;SDS011;45044;41.572;24.730;2022-07-23T12:23:33;7.60;;;4.80;;
59273;SDS011;45044;41.572;24.730;2022-07-23T12:26:00;8.57;;;4.80;;
59273;SDS011;45044;41.572;24.730;2022-07-23T12:28:32;10.02;;;5.60;;
59273;SDS011;45044;41.572;24.730;2022-07-23T12:30:59;11.18;;;5.60;;
59273;SDS011;45044;41.572;24.730;2022-07-23T12:35:59;10.70;;;4.90;;
59273;SDS011;45044;41.572;24.730;2022-07-23T12:38:28;7.82;;;4.53;;
59273;SDS011;45044;41.572;24.730;2022-07-23T12:41:03;7.30;;;4.65;;
59273;SDS011;45044;41.572;24.730;2022-07-23T12:48:38;9.43;;;4.97;;
59273;SDS011;45044;41.572;24.730;2022-07-23T12:51:20;8.50;;;5.03;;
59273;SDS011;45044;41.572;24.730;2022-07-23T12:53:58;9.90;;;4.93;;
59273;SDS011;45044;41.572;24.730;2022-07-23T12:58:56;7.10;;;4.57;;
59273;SDS011;45044;41.572;24.730;2022-07-23T13:01:30;8.13;;;5.28;;
59273;SDS011;45044;41.572;24.730;2022-07-23T13:04:00;7.47;;;4.50;;
59273;SDS011;45044;41.572;24.730;2022-07-23T13:06:45;9.10;;;4.40;;
59273;SDS011;45044;41.572;24.730;2022-07-23T13:09:27;10.73;;;5.60;;
59273;SDS011;45044;41.572;24.730;2022-07-23T13:11:58;12.63;;;5.57;;
59273;SDS011;45044;41.572;24.730;2022-07-23T13:14:26;9.07;;;5.15;;
59273;SDS011;45044;41.572;24.730;2022-07-23T13:16:54;9.38;;;5.50;;
59273;SDS011;45044;41.572;24.730;2022-07-23T13:19:25;9.65;;;4.53;;
59273;SDS011;45044;41.572;24.730;2022-07-23T13:21:54;10.02;;;5.30;;
59273;SDS011;45044;41.572;24.730;2022-07-23T13:24:21;9.13;;;5.15;;
59273;SDS011;45044;41.572;24.730;2022-07-23T13:26:48;9.90;;;5.50;;
59273;SDS011;45044;41.572;24.730;2022-07-23T13:29:18;10.75;;;4.72;;
59273;SDS011;45044;41.572;24.730;2022-07-23T13:31:46;9.35;;;4.57;;
59273;SDS011;45044;41.572;24.730;2022-07-23T13:34:17;8.93;;;4.85;;
59273;SDS011;45044;41.572;24.730;2022-07-23T13:36:45;8.48;;;4.43;;
59273;SDS011;45044;41.572;24.730;2022-07-23T13:39:12;11.40;;;5.53;;
59273;SDS011;45044;41.572;24.730;2022-07-23T13:41:39;10.10;;;5.28;;
59273;SDS011;45044;41.572;24.730;2022-07-23T13:44:14;8.27;;;4.97;;
59273;SDS011;45044;41.572;24.730;2022-07-23T13:46:41;8.70;;;5.00;;
59273;SDS011;45044;41.572;24.730;2022-07-23T13:49:08;8.43;;;5.03;;
59273;SDS011;45044;41.572;24.730;2022-07-23T13:51:36;10.13;;;5.07;;
59273;SDS011;45044;41.572;24.730;2022-07-23T13:54:03;9.35;;;5.03;;
59273;SDS011;45044;41.572;24.730;2022-07-23T13:56:50;8.68;;;4.63;;
59273;SDS011;45044;41.572;24.730;2022-07-23T13:59:19;10.35;;;4.57;;
59273;SDS011;45044;41.572;24.730;2022-07-23T14:01:46;9.25;;;4.97;;
59273;SDS011;45044;41.572;24.730;2022-07-23T14:04:33;8.20;;;5.22;;
59273;SDS011;45044;41.572;24.730;2022-07-23T14:07:01;10.40;;;4.80;;
59273;SDS011;45044;41.572;24.730;2022-07-23T14:09:27;8.63;;;5.00;;
59273;SDS011;45044;41.572;24.730;2022-07-23T14:11:55;10.45;;;5.22;;
59273;SDS011;45044;41.572;24.730;2022-07-23T14:14:24;17.10;;;11.38;;
59273;SDS011;45044;41.572;24.730;2022-07-23T14:16:51;8.13;;;4.53;;
59273;SDS011;45044;41.572;24.730;2022-07-23T14:19:18;8.52;;;4.90;;
59273;SDS011;45044;41.572;24.730;2022-07-23T14:21:45;9.45;;;4.53;;
59273;SDS011;45044;41.572;24.730;2022-07-23T14:24:11;8.57;;;4.80;;
59273;SDS011;45044;41.572;24.730;2022-07-23T14:26:38;10.52;;;4.90;;
59273;SDS011;45044;41.572;24.730;2022-07-23T14:29:05;12.18;;;5.57;;
59273;SDS011;45044;41.572;24.730;2022-07-23T14:31:35;10.13;;;4.93;;
59273;SDS011;45044;41.572;24.730;2022-07-23T14:34:02;8.05;;;4.78;;
59273;SDS011;45044;41.572;24.730;2022-07-23T14:36:29;9.05;;;5.10;;
59273;SDS011;45044;41.572;24.730;2022-07-23T14:38:56;9.82;;;4.85;;
59273;SDS011;45044;41.572;24.730;2022-07-23T14:41:24;10.85;;;6.15;;
59273;SDS011;45044;41.572;24.730;2022-07-23T14:43:53;8.45;;;5.03;;
59273;SDS011;45044;41.572;24.730;2022-07-23T14:46:20;8.60;;;4.63;;
59273;SDS011;45044;41.572;24.730;2022-07-23T14:48:47;8.60;;;4.60;;
59273;SDS011;45044;41.572;24.730;2022-07-23T14:51:14;9.65;;;4.80;;
59273;SDS011;45044;41.572;24.730;2022-07-23T14:53:41;7.55;;;4.38;;
59273;SDS011;45044;41.572;24.730;2022-07-23T14:56:08;10.13;;;5.15;;
59273;SDS011;45044;41.572;24.730;2022-07-23T14:58:35;9.82;;;4.88;;
59273;SDS011;45044;41.572;24.730;2022-07-23T15:01:03;9.15;;;4.50;;
59273;SDS011;45044;41.572;24.730;2022-07-23T15:03:30;10.35;;;5.13;;
59273;SDS011;45044;41.572;24.730;2022-07-23T15:06:08;11.60;;;5.93;;
59273;SDS011;45044;41.572;24.730;2022-07-23T15:08:36;10.48;;;4.78;;
59273;SDS011;45044;41.572;24.730;2022-07-23T15:11:05;9.63;;;5.70;;
59273;SDS011;45044;41.572;24.730;2022-07-23T15:13:35;9.02;;;5.10;;
59273;SDS011;45044;41.572;24.730;2022-07-23T15:16:03;11.77;;;5.63;;
59273;SDS011;45044;41.572;24.730;2022-07-23T15:18:33;11.30;;;4.55;;
59273;SDS011;45044;41.572;24.730;2022-07-23T15:21:01;7.82;;;4.50;;